Time;durP1;ratioP1;P1;durP2;ratioP2;P2;SDS_P1;SDS_P2;PMS_P1;PMS_P2;Temp;Humidity;BMP_temperature;BMP_pressure;BME280_temperature;BME280_humidity;BME280_pressure;Samples;Min_cycle;Max_cycle;Signal;HPM_P1;HPM_P2
2022/06/13 00:01:16;;;;;;;12.75;5.00;;;;;;;;;;4997270;28;20269;-70
2022/06/13 00:03:41;;;;;;;9.95;4.25;;;;;;;;;;4998703;28;20241;-70
2022/06/13 00:06:07;;;;;;;11.50;4.78;;;;;;;;;;5001062;28;20174;-69
2022/06/13 00:08:34;;;;;;;12.23;5.07;;;;;;;;;;4999135;28;20274;-70
2022/06/13 00:10:59;;;;;;;14.18;5.45;;;;;;;;;;5002369;28;20190;-71
2022/06/13 00:13:24;;;;;;;13.52;5.07;;;;;;;;;;5001105;28;20201;-70
2022/06/13 00:15:50;;;;;;;13.65;5.65;;;;;;;;;;5000226;28;20224;-69
2022/06/13 00:18:16;;;;;;;9.75;5.05;;;;;;;;;;5002197;28;20666;-68
2022/06/13 00:20:41;;;;;;;15.27;5.53;;;;;;;;;;4999123;28;20197;-71
2022/06/13 00:23:06;;;;;;;10.65;5.45;;;;;;;;;;4997349;28;20226;-71
2022/06/13 00:25:32;;;;;;;12.75;5.60;;;;;;;;;;4999933;28;20574;-70
2022/06/13 00:27:57;;;;;;;17.80;6.13;;;;;;;;;;4999278;28;20680;-70
2022/06/13 00:30:23;;;;;;;15.60;6.32;;;;;;;;;;5000316;28;20655;-69
2022/06/13 00:32:48;;;;;;;13.00;5.85;;;;;;;;;;4997991;28;20233;-70
2022/06/13 00:35:14;;;;;;;12.85;6.70;;;;;;;;;;4999205;28;20278;-70
2022/06/13 00:37:39;;;;;;;13.93;7.55;;;;;;;;;;4999331;28;20183;-69
2022/06/13 00:40:05;;;;;;;17.42;8.00;;;;;;;;;;5000617;28;20280;-69
2022/06/13 00:42:31;;;;;;;11.88;6.30;;;;;;;;;;5000091;28;20206;-70
2022/06/13 00:45:05;;;;;;;12.95;7.07;;;;;;;;;;4999756;28;20186;-70
2022/06/13 00:47:30;;;;;;;12.68;7.60;;;;;;;;;;4999383;28;20206;-70
2022/06/13 00:49:57;;;;;;;15.90;7.25;;;;;;;;;;4996967;28;20210;-70
2022/06/13 00:52:33;;;;;;;15.50;7.13;;;;;;;;;;4999415;28;20317;-69
2022/06/13 00:54:59;;;;;;;14.57;6.22;;;;;;;;;;4999494;28;20260;-69
2022/06/13 00:57:27;;;;;;;13.32;5.72;;;;;;;;;;4998751;28;20269;-68
2022/06/13 00:59:56;;;;;;;11.15;5.95;;;;;;;;;;4995580;28;20195;-71
2022/06/13 01:02:21;;;;;;;10.52;5.38;;;;;;;;;;4997620;28;20203;-68
2022/06/13 01:04:50;;;;;;;15.00;5.93;;;;;;;;;;4995576;28;20187;-69
2022/06/13 01:07:17;;;;;;;11.43;4.70;;;;;;;;;;4999180;28;20269;-69
2022/06/13 01:12:29;;;;;;;10.90;4.88;;;;;;;;;;4999469;28;20216;-70
2022/06/13 01:15:34;;;;;;;11.73;4.90;;;;;;;;;;4997272;28;20187;-71
2022/06/13 01:18:17;;;;;;;10.60;4.32;;;;;;;;;;4998737;28;20242;-71
2022/06/13 01:21:07;;;;;;;11.20;4.93;;;;;;;;;;5000242;28;20699;-71
2022/06/13 01:24:14;;;;;;;13.48;4.57;;;;;;;;;;5000286;28;20705;-71
2022/06/13 01:26:52;;;;;;;12.63;4.85;;;;;;;;;;4918225;29;20237;-71
2022/06/13 01:29:45;;;;;;;14.98;4.18;;;;;;;;;;4917331;29;20205;-70
2022/06/13 01:32:19;;;;;;;16.23;4.57;;;;;;;;;;4977172;28;20306;-70
2022/06/13 01:35:11;;;;;;;10.57;4.32;;;;;;;;;;4996861;28;20177;-70
2022/06/13 01:38:09;;;;;;;14.48;4.38;;;;;;;;;;4997586;28;20194;-70
2022/06/13 01:40:52;;;;;;;14.90;6.82;;;;;;;;;;4998567;28;20280;-69
2022/06/13 01:43:42;;;;;;;14.57;6.75;;;;;;;;;;4997104;28;20724;-69
2022/06/13 01:46:27;;;;;;;13.65;7.80;;;;;;;;;;4996422;28;20946;-69
2022/06/13 01:49:06;;;;;;;15.73;6.93;;;;;;;;;;4995932;28;20946;-68
2022/06/13 01:51:47;;;;;;;14.73;6.55;;;;;;;;;;4999182;28;20522;-67
2022/06/13 01:54:30;;;;;;;14.57;6.88;;;;;;;;;;4998141;28;20269;-68
2022/06/13 01:57:04;;;;;;;17.17;8.80;;;;;;;;;;4995911;28;20210;-68
2022/06/13 01:59:43;;;;;;;14.15;6.82;;;;;;;;;;4997479;28;20310;-69
2022/06/13 02:02:25;;;;;;;14.02;6.60;;;;;;;;;;4999252;28;20720;-67
2022/06/13 02:05:01;;;;;;;13.82;6.38;;;;;;;;;;4998440;28;20204;-69
2022/06/13 02:07:31;;;;;;;14.82;6.22;;;;;;;;;;4998009;28;20197;-69
2022/06/13 02:10:06;;;;;;;15.98;7.72;;;;;;;;;;4996480;28;20191;-68
2022/06/13 02:12:34;;;;;;;14.80;6.78;;;;;;;;;;4999012;28;20200;-69
2022/06/13 02:15:06;;;;;;;14.38;5.88;;;;;;;;;;4996969;28;20431;-68
2022/06/13 02:17:46;;;;;;;16.23;6.38;;;;;;;;;;4997346;28;20558;-69
2022/06/13 02:20:22;;;;;;;14.70;6.68;;;;;;;;;;4998082;28;20734;-68
2022/06/13 02:22:53;;;;;;;13.40;6.22;;;;;;;;;;4997512;28;20716;-69
2022/06/13 02:25:20;;;;;;;16.73;6.93;;;;;;;;;;4996259;28;20234;-69
2022/06/13 02:27:56;;;;;;;14.57;6.10;;;;;;;;;;4996456;28;20750;-69
2022/06/13 02:30:28;;;;;;;12.45;6.55;;;;;;;;;;4996804;28;20174;-69
2022/06/13 02:33:01;;;;;;;13.48;5.88;;;;;;;;;;4998428;28;20244;-69
2022/06/13 02:35:35;;;;;;;15.77;6.32;;;;;;;;;;4996330;28;20640;-69
2022/06/13 02:38:10;;;;;;;11.50;5.55;;;;;;;;;;4998338;28;20214;-69
2022/06/13 02:40:49;;;;;;;17.60;6.18;;;;;;;;;;4995320;28;21634;-69
2022/06/13 02:43:26;;;;;;;12.50;6.55;;;;;;;;;;4997055;28;20261;-69
2022/06/13 02:45:57;;;;;;;11.70;5.32;;;;;;;;;;4997858;28;20182;-69
2022/06/13 02:48:26;;;;;;;12.32;6.28;;;;;;;;;;4997413;28;20178;-69
2022/06/13 02:51:08;;;;;;;13.60;5.53;;;;;;;;;;4996714;28;20276;-69
2022/06/13 02:53:43;;;;;;;11.73;5.30;;;;;;;;;;4997466;28;20665;-69
2022/06/13 02:56:29;;;;;;;14.07;5.70;;;;;;;;;;4996366;28;20206;-69
2022/06/13 02:59:08;;;;;;;13.38;5.82;;;;;;;;;;4996677;28;20198;-69
2022/06/13 03:01:38;;;;;;;13.23;5.30;;;;;;;;;;4998651;28;20726;-69
2022/06/13 03:04:28;;;;;;;14.82;5.47;;;;;;;;;;4995450;28;20690;-69
2022/06/13 03:07:12;;;;;;;11.77;5.10;;;;;;;;;;4996759;28;21127;-69
2022/06/13 03:09:46;;;;;;;10.55;5.43;;;;;;;;;;4995104;28;20265;-69
2022/06/13 03:12:33;;;;;;;11.63;5.50;;;;;;;;;;4998021;28;20511;-69
2022/06/13 03:15:05;;;;;;;13.68;5.70;;;;;;;;;;4995658;28;20546;-69
2022/06/13 03:17:31;;;;;;;10.75;5.22;;;;;;;;;;4993723;28;20183;-69
2022/06/13 03:20:13;;;;;;;19.15;6.00;;;;;;;;;;5026956;28;20287;-70
2022/06/13 03:22:45;;;;;;;11.27;5.43;;;;;;;;;;4996408;28;20294;-69
2022/06/13 03:25:17;;;;;;;12.70;5.30;;;;;;;;;;4997977;28;20198;-69
2022/06/13 03:28:01;;;;;;;16.73;7.03;;;;;;;;;;4997203;28;20191;-69
2022/06/13 03:30:30;;;;;;;16.60;7.75;;;;;;;;;;4994865;28;20514;-69
2022/06/13 03:35:58;;;;;;;12.88;6.85;;;;;;;;;;4996647;28;20322;-68
2022/06/13 03:38:31;;;;;;;14.30;7.03;;;;;;;;;;4997893;28;20197;-68
2022/06/13 03:40:59;;;;;;;12.05;6.75;;;;;;;;;;4996635;28;20861;-69
2022/06/13 03:43:32;;;;;;;9.82;6.47;;;;;;;;;;4997631;28;20195;-69
2022/06/13 03:46:07;;;;;;;13.73;7.25;;;;;;;;;;4995718;28;20205;-69
2022/06/13 03:48:49;;;;;;;15.25;7.03;;;;;;;;;;4996180;28;20623;-69
2022/06/13 03:51:20;;;;;;;16.38;7.13;;;;;;;;;;4995621;28;20646;-70
2022/06/13 03:53:50;;;;;;;15.32;7.43;;;;;;;;;;4995600;28;20922;-68
2022/06/13 03:56:26;;;;;;;18.75;7.40;;;;;;;;;;4994582;28;20281;-68
2022/06/13 03:59:05;;;;;;;13.50;6.55;;;;;;;;;;4995017;28;20252;-69
2022/06/13 04:01:52;;;;;;;15.52;7.13;;;;;;;;;;4997082;28;20187;-68
2022/06/13 04:04:25;;;;;;;18.17;6.97;;;;;;;;;;4995883;28;20268;-69
2022/06/13 04:06:51;;;;;;;17.90;6.85;;;;;;;;;;4994487;28;20179;-69
2022/06/13 04:09:23;;;;;;;18.73;7.03;;;;;;;;;;4995951;28;20190;-69
2022/06/13 04:12:21;;;;;;;15.05;7.05;;;;;;;;;;4995249;28;20252;-69
2022/06/13 04:14:58;;;;;;;15.95;7.35;;;;;;;;;;4995967;28;20241;-69
2022/06/13 04:17:36;;;;;;;13.18;6.78;;;;;;;;;;4996596;28;20646;-69
2022/06/13 04:20:30;;;;;;;13.73;7.38;;;;;;;;;;4996741;28;20272;-69
2022/06/13 04:23:12;;;;;;;20.63;7.43;;;;;;;;;;4995846;28;20219;-66
2022/06/13 04:26:07;;;;;;;20.58;7.07;;;;;;;;;;4997171;28;20242;-68
2022/06/13 04:28:54;;;;;;;14.32;6.97;;;;;;;;;;4993669;28;20206;-68
2022/06/13 04:31:22;;;;;;;18.20;7.50;;;;;;;;;;4996262;28;20245;-70
2022/06/13 04:33:53;;;;;;;18.00;7.05;;;;;;;;;;4993911;28;20233;-68
2022/06/13 04:36:20;;;;;;;19.13;8.35;;;;;;;;;;4996306;28;20191;-69
2022/06/13 04:38:49;;;;;;;19.20;7.88;;;;;;;;;;4997613;28;20197;-69
2022/06/13 04:41:16;;;;;;;16.85;7.38;;;;;;;;;;4995255;28;20647;-69
2022/06/13 04:43:46;;;;;;;15.18;8.60;;;;;;;;;;4996499;28;20686;-69
2022/06/13 04:46:18;;;;;;;18.23;8.50;;;;;;;;;;4995380;28;20189;-68
2022/06/13 04:48:46;;;;;;;19.23;8.80;;;;;;;;;;4992642;28;20182;-69
2022/06/13 04:51:15;;;;;;;14.63;8.00;;;;;;;;;;4997535;28;20431;-70
2022/06/13 04:53:52;;;;;;;16.83;8.05;;;;;;;;;;4999180;28;20281;-70
2022/06/13 04:56:20;;;;;;;14.50;7.20;;;;;;;;;;4998715;28;20195;-69
2022/06/13 04:58:47;;;;;;;16.83;7.57;;;;;;;;;;4999396;28;20193;-71
2022/06/13 05:01:21;;;;;;;22.10;7.75;;;;;;;;;;4999698;28;20202;-69
2022/06/13 05:03:48;;;;;;;18.20;7.75;;;;;;;;;;4996759;28;20627;-71
2022/06/13 05:06:45;;;;;;;20.00;8.00;;;;;;;;;;4998618;28;20317;-70
2022/06/13 05:09:11;;;;;;;19.52;7.68;;;;;;;;;;4999108;28;20355;-68
2022/06/13 05:11:51;;;;;;;16.40;7.68;;;;;;;;;;5000309;28;20746;-67
2022/06/13 05:14:29;;;;;;;20.20;8.27;;;;;;;;;;5000011;28;20178;-70
2022/06/13 05:16:59;;;;;;;20.90;8.65;;;;;;;;;;4996136;28;20284;-70
2022/06/13 05:19:43;;;;;;;20.38;8.07;;;;;;;;;;4999595;28;20195;-69
2022/06/13 05:22:33;;;;;;;24.05;9.30;;;;;;;;;;4998734;28;20729;-68
2022/06/13 05:25:12;;;;;;;22.05;8.13;;;;;;;;;;4996326;28;20183;-69
2022/06/13 05:27:38;;;;;;;16.05;7.30;;;;;;;;;;4996716;28;20182;-69
2022/06/13 05:30:04;;;;;;;19.17;8.07;;;;;;;;;;4995754;28;20284;-70
2022/06/13 05:32:29;;;;;;;18.52;8.75;;;;;;;;;;4995824;28;20231;-69
2022/06/13 05:34:55;;;;;;;18.83;7.70;;;;;;;;;;4996370;28;20182;-69
2022/06/13 05:37:20;;;;;;;18.38;8.27;;;;;;;;;;4997106;28;20224;-69
2022/06/13 05:39:46;;;;;;;21.73;7.82;;;;;;;;;;4994602;28;20218;-69
2022/06/13 05:42:13;;;;;;;23.98;8.70;;;;;;;;;;4995512;28;20602;-69
2022/06/13 05:44:39;;;;;;;17.92;7.88;;;;;;;;;;4996109;28;20586;-69
2022/06/13 05:47:05;;;;;;;22.83;8.73;;;;;;;;;;4997431;28;20239;-69
2022/06/13 05:49:30;;;;;;;22.15;8.43;;;;;;;;;;4999090;28;20226;-70
2022/06/13 05:51:55;;;;;;;21.63;8.48;;;;;;;;;;4995535;28;20190;-70
2022/06/13 05:54:21;;;;;;;18.75;8.02;;;;;;;;;;5028679;28;20241;-68
2022/06/13 05:56:46;;;;;;;20.60;7.30;;;;;;;;;;4998727;28;20230;-69
2022/06/13 05:59:12;;;;;;;18.55;7.78;;;;;;;;;;4998425;28;20264;-69
2022/06/13 06:01:38;;;;;;;15.02;7.38;;;;;;;;;;4997199;28;20197;-70
2022/06/13 06:04:03;;;;;;;18.92;7.35;;;;;;;;;;4995861;28;20202;-69
2022/06/13 06:06:30;;;;;;;18.85;7.28;;;;;;;;;;4997578;28;20183;-68
2022/06/13 06:08:56;;;;;;;18.90;5.78;;;;;;;;;;4996618;28;20204;-69
2022/06/13 06:11:24;;;;;;;20.23;5.68;;;;;;;;;;4996533;28;20259;-68
2022/06/13 06:13:49;;;;;;;15.68;4.82;;;;;;;;;;4996536;28;20206;-68
2022/06/13 06:16:17;;;;;;;15.18;5.18;;;;;;;;;;4997294;28;20183;-68
2022/06/13 06:18:44;;;;;;;13.15;4.40;;;;;;;;;;4997295;28;20662;-67
2022/06/13 06:21:10;;;;;;;13.90;4.75;;;;;;;;;;4998400;28;20187;-69
2022/06/13 06:23:35;;;;;;;11.23;3.90;;;;;;;;;;4997536;28;20202;-69
2022/06/13 06:26:02;;;;;;;9.23;4.22;;;;;;;;;;4996185;28;20809;-67
2022/06/13 06:28:28;;;;;;;11.20;4.07;;;;;;;;;;4995827;28;20178;-66
2022/06/13 06:30:56;;;;;;;11.77;4.10;;;;;;;;;;4994475;28;20218;-68
2022/06/13 06:33:23;;;;;;;13.07;3.72;;;;;;;;;;4994121;28;20178;-69
2022/06/13 06:35:49;;;;;;;8.70;3.15;;;;;;;;;;4995456;28;20737;-67
2022/06/13 06:38:15;;;;;;;14.20;3.60;;;;;;;;;;4996267;28;20229;-68
2022/06/13 06:40:41;;;;;;;10.63;3.15;;;;;;;;;;4997188;28;20187;-70
2022/06/13 06:43:06;;;;;;;10.30;3.10;;;;;;;;;;4993233;28;20218;-68
2022/06/13 06:45:32;;;;;;;10.25;2.55;;;;;;;;;;4995860;28;20203;-67
2022/06/13 06:47:58;;;;;;;8.10;2.78;;;;;;;;;;4996722;28;20771;-69
2022/06/13 06:50:27;;;;;;;5.57;2.40;;;;;;;;;;4997511;28;20223;-70
2022/06/13 06:52:53;;;;;;;4.70;2.25;;;;;;;;;;4997596;28;21153;-65
2022/06/13 07:00:50;;;;;;;6.05;2.28;;;;;;;;;;4996578;28;20260;-66
2022/06/13 07:03:17;;;;;;;4.45;1.77;;;;;;;;;;4998757;28;20305;-68
2022/06/13 07:05:42;;;;;;;10.23;2.00;;;;;;;;;;4996908;28;20716;-69
2022/06/13 07:08:08;;;;;;;6.60;1.70;;;;;;;;;;4998307;28;20191;-68
2022/06/13 07:10:33;;;;;;;8.45;2.20;;;;;;;;;;4998448;28;20202;-68
2022/06/13 07:12:59;;;;;;;9.35;2.15;;;;;;;;;;4997870;28;20652;-69
2022/06/13 07:15:24;;;;;;;9.00;2.00;;;;;;;;;;4998805;28;20275;-68
2022/06/13 07:17:49;;;;;;;6.43;1.92;;;;;;;;;;4994074;28;20661;-68
2022/06/13 07:20:15;;;;;;;9.10;2.88;;;;;;;;;;4998083;28;20558;-70
2022/06/13 07:22:49;;;;;;;7.82;2.17;;;;;;;;;;5011376;28;20212;-68
2022/06/13 07:25:17;;;;;;;8.68;2.08;;;;;;;;;;4998201;28;20178;-69
2022/06/13 07:27:43;;;;;;;6.05;1.70;;;;;;;;;;4996427;28;20245;-69
2022/06/13 07:30:09;;;;;;;8.27;1.65;;;;;;;;;;4997428;28;20654;-69
2022/06/13 07:32:35;;;;;;;6.68;1.83;;;;;;;;;;4998439;28;20214;-69
2022/06/13 07:35:02;;;;;;;7.20;1.88;;;;;;;;;;4997022;28;20187;-69
2022/06/13 07:40:13;;;;;;;4.60;1.80;;;;;;;;;;4998365;28;20229;-67
2022/06/13 07:42:51;;;;;;;7.03;1.23;;;;;;;;;;4997335;28;20673;-70
2022/06/13 07:45:21;;;;;;;6.40;1.40;;;;;;;;;;4995733;28;20193;-70
2022/06/13 07:47:49;;;;;;;7.10;1.00;;;;;;;;;;4997685;28;20218;-68
2022/06/13 07:50:16;;;;;;;5.85;1.13;;;;;;;;;;4997232;28;20195;-68
2022/06/13 07:52:41;;;;;;;3.33;1.20;;;;;;;;;;4996019;28;20289;-69
2022/06/13 07:55:07;;;;;;;5.88;1.25;;;;;;;;;;4995703;28;20670;-67
2022/06/13 07:57:32;;;;;;;2.65;1.42;;;;;;;;;;4995428;28;20198;-67
2022/06/13 07:59:58;;;;;;;2.85;1.10;;;;;;;;;;4995134;28;20190;-65
2022/06/13 08:02:30;;;;;;;6.45;1.30;;;;;;;;;;4996647;28;20908;-66
2022/06/13 08:04:55;;;;;;;3.55;1.20;;;;;;;;;;4993836;28;20665;-65
2022/06/13 08:07:20;;;;;;;4.43;1.63;;;;;;;;;;4996058;28;20187;-69
2022/06/13 08:09:46;;;;;;;4.18;1.10;;;;;;;;;;4996221;28;20272;-68
2022/06/13 08:12:14;;;;;;;7.65;1.55;;;;;;;;;;4996435;28;20183;-67
2022/06/13 08:14:45;;;;;;;6.07;1.50;;;;;;;;;;4995186;28;20254;-68
2022/06/13 08:17:11;;;;;;;3.55;1.20;;;;;;;;;;4997486;28;20681;-67
2022/06/13 08:19:36;;;;;;;4.20;1.27;;;;;;;;;;4997517;28;20194;-67
2022/06/13 08:22:01;;;;;;;5.28;1.30;;;;;;;;;;4998356;28;20220;-70
2022/06/13 08:24:27;;;;;;;5.38;0.93;;;;;;;;;;4997914;28;20199;-70
2022/06/13 08:26:52;;;;;;;2.58;1.00;;;;;;;;;;5000884;28;21139;-69
2022/06/13 08:29:17;;;;;;;3.72;1.10;;;;;;;;;;4999320;28;20197;-66
2022/06/13 08:31:43;;;;;;;7.28;1.08;;;;;;;;;;5001045;28;20712;-68
2022/06/13 08:34:08;;;;;;;8.68;1.38;;;;;;;;;;5001065;28;20555;-66
2022/06/13 08:36:34;;;;;;;9.20;1.83;;;;;;;;;;5002261;28;20214;-71
2022/06/13 08:38:59;;;;;;;8.50;1.92;;;;;;;;;;5002856;28;20324;-66
2022/06/13 08:41:54;;;;;;;5.95;1.42;;;;;;;;;;5001304;28;20726;-68
2022/06/13 08:44:39;;;;;;;5.22;1.10;;;;;;;;;;4998995;28;20230;-67
2022/06/13 08:47:44;;;;;;;4.28;1.00;;;;;;;;;;5013274;28;20225;-71
2022/06/13 08:50:28;;;;;;;2.65;0.90;;;;;;;;;;4999406;28;20206;-67
2022/06/13 08:53:06;;;;;;;4.78;0.95;;;;;;;;;;5001090;28;20175;-69
2022/06/13 08:55:49;;;;;;;2.40;1.05;;;;;;;;;;5000743;28;20669;-70
2022/06/13 08:58:17;;;;;;;2.55;1.08;;;;;;;;;;5000477;28;20599;-66
2022/06/13 09:00:50;;;;;;;2.33;0.77;;;;;;;;;;5000262;28;20186;-68
2022/06/13 09:03:20;;;;;;;2.67;0.77;;;;;;;;;;5000901;28;20205;-66
2022/06/13 09:06:17;;;;;;;4.07;0.73;;;;;;;;;;4999439;28;20544;-66
2022/06/13 09:08:54;;;;;;;2.78;0.70;;;;;;;;;;4999281;28;20206;-66
2022/06/13 09:11:22;;;;;;;1.95;0.80;;;;;;;;;;5001108;28;20737;-67
2022/06/13 09:13:52;;;;;;;2.05;0.80;;;;;;;;;;4999955;28;20193;-73
2022/06/13 09:16:29;;;;;;;2.08;0.85;;;;;;;;;;4999891;28;20182;-71
2022/06/13 09:19:04;;;;;;;4.35;1.13;;;;;;;;;;4999198;28;20201;-67
2022/06/13 09:21:37;;;;;;;2.65;0.73;;;;;;;;;;4998255;28;20608;-67
2022/06/13 09:24:14;;;;;;;6.38;0.98;;;;;;;;;;4999635;28;20736;-69
2022/06/13 09:26:48;;;;;;;7.70;1.05;;;;;;;;;;5000031;28;20600;-66
2022/06/13 09:29:33;;;;;;;6.18;1.05;;;;;;;;;;4997527;28;20229;-67
2022/06/13 09:32:09;;;;;;;5.90;0.95;;;;;;;;;;5000485;28;20277;-65
2022/06/13 09:34:45;;;;;;;2.90;0.85;;;;;;;;;;4997517;28;20186;-67
2022/06/13 09:37:36;;;;;;;3.45;0.63;;;;;;;;;;5001055;28;20240;-69
2022/06/13 09:40:03;;;;;;;3.08;0.88;;;;;;;;;;5014789;28;20191;-67
2022/06/13 09:42:44;;;;;;;3.10;0.77;;;;;;;;;;5002308;28;20194;-67
2022/06/13 09:45:31;;;;;;;4.68;0.52;;;;;;;;;;5001276;28;20638;-67
2022/06/13 09:48:32;;;;;;;7.05;1.30;;;;;;;;;;5013866;28;20669;-67
2022/06/13 09:51:18;;;;;;;3.72;0.80;;;;;;;;;;4999797;28;20270;-66
2022/06/13 09:54:09;;;;;;;2.60;0.40;;;;;;;;;;4998479;28;20171;-68
2022/06/13 09:56:39;;;;;;;2.05;0.73;;;;;;;;;;5000531;28;20194;-66
2022/06/13 09:59:19;;;;;;;1.85;0.52;;;;;;;;;;4998761;28;20182;-71
2022/06/13 10:01:52;;;;;;;3.55;1.10;;;;;;;;;;4998350;28;20694;-68
2022/06/13 10:04:30;;;;;;;3.80;0.70;;;;;;;;;;5000144;28;21360;-70
2022/06/13 10:07:13;;;;;;;6.22;0.82;;;;;;;;;;5001059;28;20178;-66
2022/06/13 10:09:43;;;;;;;4.68;1.08;;;;;;;;;;4999842;28;20192;-67
2022/06/13 10:12:47;;;;;;;2.42;0.90;;;;;;;;;;5000359;28;20191;-68
2022/06/13 10:15:40;;;;;;;1.67;0.60;;;;;;;;;;4999972;28;20614;-67
2022/06/13 10:18:11;;;;;;;3.25;0.60;;;;;;;;;;4999306;28;20191;-67
2022/06/13 10:20:46;;;;;;;3.83;0.82;;;;;;;;;;4999170;28;20278;-67
2022/06/13 10:23:42;;;;;;;5.95;1.63;;;;;;;;;;4999364;28;20240;-68
2022/06/13 10:26:26;;;;;;;1.15;0.52;;;;;;;;;;4995387;28;20238;-66
2022/06/13 10:29:07;;;;;;;2.22;0.73;;;;;;;;;;4997734;28;20237;-71
2022/06/13 10:31:53;;;;;;;3.42;0.57;;;;;;;;;;4998303;28;20210;-66
2022/06/13 10:35:03;;;;;;;3.20;0.68;;;;;;;;;;4997249;28;20175;-67
2022/06/13 10:37:34;;;;;;;2.25;0.70;;;;;;;;;;4976820;28;20214;-68
2022/06/13 10:40:03;;;;;;;4.85;0.82;;;;;;;;;;4997340;28;20352;-66
2022/06/13 10:42:32;;;;;;;3.30;0.80;;;;;;;;;;4998978;28;20186;-70
2022/06/13 10:44:58;;;;;;;5.38;0.82;;;;;;;;;;4998001;28;20245;-66
2022/06/13 10:47:29;;;;;;;4.72;0.70;;;;;;;;;;4998750;28;20533;-68
2022/06/13 10:50:01;;;;;;;2.50;0.80;;;;;;;;;;4997081;28;20201;-69
2022/06/13 10:52:32;;;;;;;3.63;0.65;;;;;;;;;;4998115;28;20183;-69
2022/06/13 10:55:08;;;;;;;2.20;0.57;;;;;;;;;;4998865;28;20542;-66
2022/06/13 10:57:39;;;;;;;2.25;0.80;;;;;;;;;;4999024;28;20181;-66
2022/06/13 11:00:19;;;;;;;6.20;0.98;;;;;;;;;;4999781;28;20214;-67
2022/06/13 11:02:46;;;;;;;3.50;0.73;;;;;;;;;;4998758;28;20240;-68
2022/06/13 11:05:17;;;;;;;4.25;0.60;;;;;;;;;;4998706;28;20218;-67
2022/06/13 11:07:55;;;;;;;2.47;0.63;;;;;;;;;;4996601;28;20565;-66
2022/06/13 11:10:55;;;;;;;3.90;0.60;;;;;;;;;;4997420;28;20186;-67
2022/06/13 11:13:25;;;;;;;4.70;0.80;;;;;;;;;;4977945;28;20270;-67
2022/06/13 11:24:58;;;;;;;4.25;0.65;;;;;;;;;;4996885;28;20221;-69
2022/06/13 11:27:40;;;;;;;1.90;0.45;;;;;;;;;;4995689;28;20260;-69
2022/06/13 11:30:27;;;;;;;2.92;1.00;;;;;;;;;;4996398;28;20322;-66
2022/06/13 11:33:14;;;;;;;3.17;0.77;;;;;;;;;;4996512;28;20574;-67
2022/06/13 11:35:46;;;;;;;3.17;0.80;;;;;;;;;;4997649;28;20290;-67
2022/06/13 11:38:23;;;;;;;3.05;0.60;;;;;;;;;;4997270;28;20297;-67
2022/06/13 11:41:11;;;;;;;4.75;0.63;;;;;;;;;;4998806;28;20340;-68
2022/06/13 11:43:50;;;;;;;3.22;1.00;;;;;;;;;;4994170;28;20226;-67
2022/06/13 11:46:27;;;;;;;4.75;0.63;;;;;;;;;;4996283;28;20194;-69
2022/06/13 11:48:55;;;;;;;2.20;0.80;;;;;;;;;;4996838;28;20280;-70
2022/06/13 11:51:31;;;;;;;3.30;0.82;;;;;;;;;;4997173;28;20596;-68
2022/06/13 11:53:59;;;;;;;5.13;1.38;;;;;;;;;;4995917;28;20316;-67
2022/06/13 11:56:28;;;;;;;3.50;0.50;;;;;;;;;;4999954;28;20185;-70
2022/06/13 11:58:55;;;;;;;2.25;0.40;;;;;;;;;;4996979;28;20197;-67
2022/06/13 12:01:38;;;;;;;1.73;0.60;;;;;;;;;;4997504;28;20195;-69
2022/06/13 12:04:12;;;;;;;3.10;0.60;;;;;;;;;;4995878;28;20202;-66
2022/06/13 12:06:55;;;;;;;6.32;0.88;;;;;;;;;;4998871;28;20213;-70
2022/06/13 12:09:31;;;;;;;2.30;1.00;;;;;;;;;;4996494;28;20186;-67
2022/06/13 12:12:08;;;;;;;3.83;0.88;;;;;;;;;;4996459;28;20665;-66
2022/06/13 12:14:38;;;;;;;2.72;0.60;;;;;;;;;;4996949;28;20190;-69
2022/06/13 12:17:15;;;;;;;7.60;0.60;;;;;;;;;;4998434;28;20231;-70
2022/06/13 12:20:01;;;;;;;3.65;0.80;;;;;;;;;;4998752;28;20210;-66
2022/06/13 12:22:37;;;;;;;3.15;0.75;;;;;;;;;;4994955;28;20181;-66
2022/06/13 12:25:05;;;;;;;2.65;0.50;;;;;;;;;;4995581;28;20538;-68
2022/06/13 12:28:06;;;;;;;2.42;0.50;;;;;;;;;;4995697;28;20551;-71
2022/06/13 12:30:45;;;;;;;3.63;0.57;;;;;;;;;;4997769;28;20608;-69
2022/06/13 12:33:35;;;;;;;2.90;0.77;;;;;;;;;;4994605;28;20571;-70
2022/06/13 12:36:06;;;;;;;5.13;1.00;;;;;;;;;;4996693;28;20668;-66
2022/06/13 12:38:53;;;;;;;4.40;0.90;;;;;;;;;;4996147;28;20205;-68
2022/06/13 12:41:32;;;;;;;5.95;1.08;;;;;;;;;;4995723;28;20665;-66
2022/06/13 12:44:13;;;;;;;4.07;0.70;;;;;;;;;;4994812;28;20227;-70
2022/06/13 12:47:10;;;;;;;5.28;0.80;;;;;;;;;;4995882;28;20686;-69
2022/06/13 12:50:01;;;;;;;4.03;0.80;;;;;;;;;;4995285;28;20651;-66
2022/06/13 12:52:43;;;;;;;5.78;1.13;;;;;;;;;;4993688;28;20199;-67
2022/06/13 12:55:31;;;;;;;2.22;0.60;;;;;;;;;;4994639;28;20373;-68
2022/06/13 12:58:18;;;;;;;7.45;1.23;;;;;;;;;;4992873;28;20213;-68
2022/06/13 13:00:53;;;;;;;5.82;0.95;;;;;;;;;;4994815;28;20371;-68
2022/06/13 13:03:49;;;;;;;8.93;1.08;;;;;;;;;;4993702;28;21674;-71
2022/06/13 13:06:33;;;;;;;3.88;0.60;;;;;;;;;;4995013;28;20675;-67
2022/06/13 13:09:27;;;;;;;7.47;1.30;;;;;;;;;;4996220;28;20189;-69
2022/06/13 13:12:30;;;;;;;2.22;0.70;;;;;;;;;;4997421;28;20245;-67
2022/06/13 13:15:20;;;;;;;6.43;0.90;;;;;;;;;;4998452;28;20191;-70
2022/06/13 13:18:00;;;;;;;4.18;0.77;;;;;;;;;;4998248;28;20171;-68
2022/06/13 13:20:36;;;;;;;3.45;0.90;;;;;;;;;;4998787;28;20282;-66
2022/06/13 13:23:26;;;;;;;1.50;0.63;;;;;;;;;;4999874;28;20535;-68
2022/06/13 13:26:15;;;;;;;4.32;0.70;;;;;;;;;;4995998;28;20329;-68
2022/06/13 13:28:43;;;;;;;4.35;0.68;;;;;;;;;;4999700;28;20183;-69
2022/06/13 13:31:29;;;;;;;4.57;0.80;;;;;;;;;;5000548;28;20215;-70
2022/06/13 13:34:20;;;;;;;4.78;0.77;;;;;;;;;;4998719;28;20188;-68
2022/06/13 13:37:27;;;;;;;3.72;0.90;;;;;;;;;;5001149;28;20189;-68
2022/06/13 13:40:03;;;;;;;4.18;1.10;;;;;;;;;;5001409;28;20232;-69
2022/06/13 13:42:55;;;;;;;3.33;0.95;;;;;;;;;;4998933;28;20174;-68
2022/06/13 13:45:25;;;;;;;4.68;0.90;;;;;;;;;;5014831;28;20187;-73
2022/06/13 13:47:55;;;;;;;3.80;0.90;;;;;;;;;;4999862;28;20225;-69
2022/06/13 13:50:25;;;;;;;7.15;1.00;;;;;;;;;;4999202;28;20646;-67
2022/06/13 13:52:55;;;;;;;5.72;1.55;;;;;;;;;;4996945;28;20179;-71
2022/06/13 13:55:36;;;;;;;4.68;0.70;;;;;;;;;;4998251;28;20553;-68
2022/06/13 13:58:31;;;;;;;6.07;0.82;;;;;;;;;;4999499;28;20186;-67
2022/06/13 14:01:17;;;;;;;2.08;0.70;;;;;;;;;;5000613;28;20430;-69
2022/06/13 14:04:06;;;;;;;3.92;0.80;;;;;;;;;;4998158;28;20233;-71
2022/06/13 14:06:36;;;;;;;4.40;0.90;;;;;;;;;;5013580;28;20187;-69
2022/06/13 14:09:04;;;;;;;3.03;0.98;;;;;;;;;;4999620;28;20282;-67
2022/06/13 14:11:30;;;;;;;4.78;0.77;;;;;;;;;;4998690;28;20530;-69
2022/06/13 14:14:06;;;;;;;4.78;0.73;;;;;;;;;;4997020;28;20171;-69
2022/06/13 14:16:47;;;;;;;2.58;0.60;;;;;;;;;;5000055;28;20203;-68
2022/06/13 14:19:17;;;;;;;4.85;0.70;;;;;;;;;;4997628;28;20638;-71
2022/06/13 14:21:42;;;;;;;3.03;0.73;;;;;;;;;;5000729;28;20194;-70
2022/06/13 14:24:11;;;;;;;3.65;0.90;;;;;;;;;;4997490;28;20256;-68
2022/06/13 14:26:57;;;;;;;5.68;0.90;;;;;;;;;;4997707;28;20281;-68
2022/06/13 14:29:26;;;;;;;5.63;0.77;;;;;;;;;;4996405;28;20194;-69
2022/06/13 14:32:01;;;;;;;1.75;0.70;;;;;;;;;;4998554;28;20371;-68
2022/06/13 14:37:50;;;;;;;4.25;1.20;;;;;;;;;;5000903;28;20769;-67
2022/06/13 14:40:24;;;;;;;5.35;0.70;;;;;;;;;;4998808;28;20264;-71
2022/06/13 14:42:58;;;;;;;3.15;1.00;;;;;;;;;;4995859;28;20215;-70
2022/06/13 14:45:41;;;;;;;4.85;1.00;;;;;;;;;;4998136;28;20187;-67
2022/06/13 14:48:17;;;;;;;6.28;1.20;;;;;;;;;;4997410;28;20197;-69
2022/06/13 14:50:45;;;;;;;4.82;0.93;;;;;;;;;;5016642;28;20733;-69
2022/06/13 14:53:34;;;;;;;4.95;1.10;;;;;;;;;;5001456;28;20175;-69
2022/06/13 14:56:11;;;;;;;6.75;0.95;;;;;;;;;;5000421;28;20277;-69
2022/06/13 14:58:45;;;;;;;6.18;1.20;;;;;;;;;;4999178;28;20800;-68
2022/06/13 15:01:36;;;;;;;4.03;1.08;;;;;;;;;;4999806;28;20190;-70
2022/06/13 15:04:01;;;;;;;2.33;0.73;;;;;;;;;;5012647;28;20646;-69
2022/06/13 15:06:35;;;;;;;4.90;0.75;;;;;;;;;;5000454;28;20178;-71
2022/06/13 15:09:22;;;;;;;3.17;0.85;;;;;;;;;;4997639;28;20189;-69
2022/06/13 15:11:50;;;;;;;3.15;0.93;;;;;;;;;;4998000;28;20194;-70
2022/06/13 15:14:18;;;;;;;4.38;1.05;;;;;;;;;;4996743;28;20197;-71
2022/06/13 15:16:45;;;;;;;3.17;0.80;;;;;;;;;;4996781;28;20273;-66
2022/06/13 15:19:11;;;;;;;2.63;0.90;;;;;;;;;;4995628;28;20189;-67
2022/06/13 15:21:48;;;;;;;3.97;0.90;;;;;;;;;;4996475;28;20593;-69
2022/06/13 15:24:17;;;;;;;4.20;1.02;;;;;;;;;;4994575;28;20227;-69
2022/06/13 15:26:45;;;;;;;3.40;1.10;;;;;;;;;;4993838;28;20709;-70
2022/06/13 15:29:28;;;;;;;5.28;1.08;;;;;;;;;;4995216;28;20198;-67
2022/06/13 15:32:15;;;;;;;2.70;0.70;;;;;;;;;;4996621;28;20563;-68
2022/06/13 15:34:53;;;;;;;5.40;0.88;;;;;;;;;;4996396;28;20182;-67
2022/06/13 15:37:18;;;;;;;4.72;1.20;;;;;;;;;;4996854;28;20221;-70
2022/06/13 15:39:46;;;;;;;3.90;1.27;;;;;;;;;;4995222;28;20198;-68
2022/06/13 15:42:15;;;;;;;4.25;1.40;;;;;;;;;;4996077;28;20669;-69
2022/06/13 15:44:42;;;;;;;6.55;1.23;;;;;;;;;;4998727;28;20218;-72
2022/06/13 15:47:08;;;;;;;3.50;1.02;;;;;;;;;;4996910;28;20191;-68
2022/06/13 15:49:39;;;;;;;5.70;1.00;;;;;;;;;;4996861;28;20185;-67